sensor_id;sensor_type;location;lat;lon;timestamp;P1;durP1;ratioP1;P2;durP2;ratioP2
41249;SDS011;26984;59.928;30.306;2022-11-10T00:01:11;19.25;;;15.63;;
41249;SDS011;26984;59.928;30.306;2022-11-10T00:03:57;16.02;;;14.48;;
41249;SDS011;26984;59.928;30.306;2022-11-10T00:06:45;16.65;;;14.43;;
41249;SDS011;26984;59.928;30.306;2022-11-10T00:09:31;15.88;;;13.95;;
41249;SDS011;26984;59.928;30.306;2022-11-10T00:12:17;17.58;;;15.77;;
41249;SDS011;26984;59.928;30.306;2022-11-10T00:15:04;18.75;;;15.30;;
41249;SDS011;26984;59.928;30.306;2022-11-10T00:18:10;17.98;;;15.38;;
41249;SDS011;26984;59.928;30.306;2022-11-10T00:21:00;18.70;;;15.05;;
41249;SDS011;26984;59.928;30.306;2022-11-10T00:23:48;17.52;;;14.77;;
41249;SDS011;26984;59.928;30.306;2022-11-10T00:26:34;15.98;;;14.38;;
41249;SDS011;26984;59.928;30.306;2022-11-10T00:29:21;17.25;;;15.55;;
41249;SDS011;26984;59.928;30.306;2022-11-10T00:32:07;17.55;;;14.85;;
41249;SDS011;26984;59.928;30.306;2022-11-10T00:34:55;16.17;;;14.25;;
41249;SDS011;26984;59.928;30.306;2022-11-10T00:37:41;15.57;;;13.25;;
41249;SDS011;26984;59.928;30.306;2022-11-10T00:40:28;14.90;;;13.00;;
41249;SDS011;26984;59.928;30.306;2022-11-10T00:43:14;15.80;;;12.52;;
41249;SDS011;26984;59.928;30.306;2022-11-10T00:46:00;12.98;;;11.65;;
41249;SDS011;26984;59.928;30.306;2022-11-10T00:48:46;14.25;;;12.48;;
41249;SDS011;26984;59.928;30.306;2022-11-10T00:51:34;13.77;;;10.60;;
41249;SDS011;26984;59.928;30.306;2022-11-10T00:54:20;12.90;;;11.60;;
41249;SDS011;26984;59.928;30.306;2022-11-10T00:57:07;13.88;;;12.48;;
41249;SDS011;26984;59.928;30.306;2022-11-10T00:59:53;12.50;;;11.23;;
41249;SDS011;26984;59.928;30.306;2022-11-10T01:02:40;12.13;;;10.93;;
41249;SDS011;26984;59.928;30.306;2022-11-10T01:05:26;10.40;;;9.18;;
41249;SDS011;26984;59.928;30.306;2022-11-10T01:08:14;11.50;;;10.40;;
41249;SDS011;26984;59.928;30.306;2022-11-10T01:11:01;13.00;;;11.70;;
41249;SDS011;26984;59.928;30.306;2022-11-10T01:13:48;11.88;;;10.57;;
41249;SDS011;26984;59.928;30.306;2022-11-10T01:16:36;11.07;;;10.07;;
41249;SDS011;26984;59.928;30.306;2022-11-10T01:19:22;11.68;;;10.48;;
41249;SDS011;26984;59.928;30.306;2022-11-10T01:22:09;10.93;;;9.68;;
41249;SDS011;26984;59.928;30.306;2022-11-10T01:24:56;11.65;;;10.25;;
41249;SDS011;26984;59.928;30.306;2022-11-10T01:27:42;11.32;;;10.23;;
41249;SDS011;26984;59.928;30.306;2022-11-10T01:30:29;10.70;;;9.40;;
41249;SDS011;26984;59.928;30.306;2022-11-10T01:33:19;12.15;;;10.98;;
41249;SDS011;26984;59.928;30.306;2022-11-10T01:36:06;11.77;;;10.57;;
41249;SDS011;26984;59.928;30.306;2022-11-10T01:38:53;12.90;;;11.60;;
41249;SDS011;26984;59.928;30.306;2022-11-10T01:41:41;12.75;;;11.45;;
41249;SDS011;26984;59.928;30.306;2022-11-10T01:44:27;15.98;;;12.40;;
41249;SDS011;26984;59.928;30.306;2022-11-10T01:47:14;13.68;;;12.32;;
41249;SDS011;26984;59.928;30.306;2022-11-10T01:50:02;12.25;;;10.75;;
41249;SDS011;26984;59.928;30.306;2022-11-10T01:52:50;12.98;;;11.68;;
41249;SDS011;26984;59.928;30.306;2022-11-10T01:55:41;12.43;;;11.13;;
41249;SDS011;26984;59.928;30.306;2022-11-10T01:58:31;12.63;;;11.40;;
41249;SDS011;26984;59.928;30.306;2022-11-10T02:01:23;13.35;;;11.98;;
41249;SDS011;26984;59.928;30.306;2022-11-10T02:04:10;11.75;;;10.55;;
41249;SDS011;26984;59.928;30.306;2022-11-10T02:07:01;12.65;;;10.93;;
41249;SDS011;26984;59.928;30.306;2022-11-10T02:09:47;11.93;;;9.55;;
41249;SDS011;26984;59.928;30.306;2022-11-10T02:12:33;11.68;;;10.38;;
41249;SDS011;26984;59.928;30.306;2022-11-10T02:15:25;11.30;;;10.20;;
41249;SDS011;26984;59.928;30.306;2022-11-10T02:18:11;12.60;;;10.93;;
41249;SDS011;26984;59.928;30.306;2022-11-10T02:20:59;12.63;;;9.52;;
41249;SDS011;26984;59.928;30.306;2022-11-10T02:23:50;12.43;;;11.23;;
41249;SDS011;26984;59.928;30.306;2022-11-10T02:26:38;12.05;;;10.70;;
41249;SDS011;26984;59.928;30.306;2022-11-10T02:29:28;10.57;;;9.50;;
41249;SDS011;26984;59.928;30.306;2022-11-10T02:32:14;11.50;;;10.32;;
41249;SDS011;26984;59.928;30.306;2022-11-10T02:35:01;10.75;;;9.27;;
41249;SDS011;26984;59.928;30.306;2022-11-10T02:37:50;11.32;;;10.23;;
41249;SDS011;26984;59.928;30.306;2022-11-10T02:40:36;13.23;;;10.75;;
41249;SDS011;26984;59.928;30.306;2022-11-10T02:43:22;9.80;;;8.90;;
41249;SDS011;26984;59.928;30.306;2022-11-10T02:46:09;9.48;;;8.57;;
41249;SDS011;26984;59.928;30.306;2022-11-10T02:48:56;10.02;;;9.13;;
41249;SDS011;26984;59.928;30.306;2022-11-10T02:51:43;9.18;;;8.27;;
41249;SDS011;26984;59.928;30.306;2022-11-10T02:54:30;8.60;;;7.63;;
41249;SDS011;26984;59.928;30.306;2022-11-10T02:57:17;8.70;;;7.90;;
41249;SDS011;26984;59.928;30.306;2022-11-10T03:00:04;8.82;;;8.02;;
41249;SDS011;26984;59.928;30.306;2022-11-10T03:02:54;8.65;;;7.80;;
41249;SDS011;26984;59.928;30.306;2022-11-10T03:05:40;8.60;;;7.80;;
41249;SDS011;26984;59.928;30.306;2022-11-10T03:08:26;8.18;;;7.38;;
41249;SDS011;26984;59.928;30.306;2022-11-10T03:11:14;8.18;;;7.38;;
41249;SDS011;26984;59.928;30.306;2022-11-10T03:14:01;8.38;;;7.68;;
41249;SDS011;26984;59.928;30.306;2022-11-10T03:16:47;8.82;;;8.13;;
41249;SDS011;26984;59.928;30.306;2022-11-10T03:19:33;9.05;;;8.27;;
41249;SDS011;26984;59.928;30.306;2022-11-10T03:22:21;9.40;;;8.50;;
41249;SDS011;26984;59.928;30.306;2022-11-10T03:25:07;9.05;;;7.65;;
41249;SDS011;26984;59.928;30.306;2022-11-10T03:27:56;9.10;;;8.20;;
41249;SDS011;26984;59.928;30.306;2022-11-10T03:30:42;8.55;;;7.75;;
41249;SDS011;26984;59.928;30.306;2022-11-10T03:33:29;8.30;;;7.35;;
41249;SDS011;26984;59.928;30.306;2022-11-10T03:36:19;10.32;;;9.00;;
41249;SDS011;26984;59.928;30.306;2022-11-10T03:39:05;8.35;;;7.55;;
41249;SDS011;26984;59.928;30.306;2022-11-10T03:41:52;8.13;;;7.35;;
41249;SDS011;26984;59.928;30.306;2022-11-10T03:44:39;9.73;;;8.32;;
41249;SDS011;26984;59.928;30.306;2022-11-10T03:47:26;8.52;;;7.75;;
41249;SDS011;26984;59.928;30.306;2022-11-10T03:50:12;10.73;;;8.18;;
41249;SDS011;26984;59.928;30.306;2022-11-10T03:52:59;9.00;;;8.20;;
41249;SDS011;26984;59.928;30.306;2022-11-10T03:55:46;9.13;;;8.20;;
41249;SDS011;26984;59.928;30.306;2022-11-10T03:58:33;8.15;;;7.35;;
41249;SDS011;26984;59.928;30.306;2022-11-10T04:01:21;8.27;;;7.47;;
41249;SDS011;26984;59.928;30.306;2022-11-10T04:04:09;8.37;;;7.67;;
41249;SDS011;26984;59.928;30.306;2022-11-10T04:07:17;8.48;;;7.68;;
41249;SDS011;26984;59.928;30.306;2022-11-10T04:10:21;7.65;;;7.00;;
41249;SDS011;26984;59.928;30.306;2022-11-10T04:13:10;9.48;;;7.13;;
41249;SDS011;26984;59.928;30.306;2022-11-10T04:16:14;7.10;;;6.40;;
41249;SDS011;26984;59.928;30.306;2022-11-10T04:19:08;8.55;;;7.82;;
41249;SDS011;26984;59.928;30.306;2022-11-10T04:21:54;7.22;;;6.57;;
41249;SDS011;26984;59.928;30.306;2022-11-10T04:24:41;7.10;;;6.40;;
41249;SDS011;26984;59.928;30.306;2022-11-10T04:27:28;7.22;;;6.50;;
41249;SDS011;26984;59.928;30.306;2022-11-10T04:30:15;7.90;;;7.25;;
41249;SDS011;26984;59.928;30.306;2022-11-10T04:33:02;9.07;;;8.27;;
41249;SDS011;26984;59.928;30.306;2022-11-10T04:35:50;6.60;;;6.00;;
41249;SDS011;26984;59.928;30.306;2022-11-10T04:38:40;9.18;;;8.35;;
41249;SDS011;26984;59.928;30.306;2022-11-10T04:41:28;8.40;;;7.70;;
41249;SDS011;26984;59.928;30.306;2022-11-10T04:44:17;7.65;;;6.95;;
41249;SDS011;26984;59.928;30.306;2022-11-10T04:47:04;7.72;;;7.13;;
41249;SDS011;26984;59.928;30.306;2022-11-10T04:49:51;7.55;;;6.95;;
41249;SDS011;26984;59.928;30.306;2022-11-10T04:52:42;9.43;;;8.65;;
41249;SDS011;26984;59.928;30.306;2022-11-10T04:55:28;7.88;;;7.18;;
41249;SDS011;26984;59.928;30.306;2022-11-10T04:58:15;6.93;;;6.32;;
41249;SDS011;26984;59.928;30.306;2022-11-10T05:01:01;8.35;;;7.55;;
41249;SDS011;26984;59.928;30.306;2022-11-10T05:03:48;9.40;;;8.60;;
41249;SDS011;26984;59.928;30.306;2022-11-10T05:06:36;19.50;;;18.27;;
41249;SDS011;26984;59.928;30.306;2022-11-10T05:09:23;11.48;;;10.68;;
41249;SDS011;26984;59.928;30.306;2022-11-10T05:12:10;12.77;;;11.82;;
41249;SDS011;26984;59.928;30.306;2022-11-10T05:14:56;8.93;;;7.38;;
41249;SDS011;26984;59.928;30.306;2022-11-10T05:17:42;8.70;;;8.00;;
41249;SDS011;26984;59.928;30.306;2022-11-10T05:20:33;8.25;;;7.55;;
41249;SDS011;26984;59.928;30.306;2022-11-10T05:23:19;8.25;;;7.55;;
41249;SDS011;26984;59.928;30.306;2022-11-10T05:26:30;10.25;;;9.25;;
41249;SDS011;26984;59.928;30.306;2022-11-10T05:29:22;9.95;;;9.15;;
41249;SDS011;26984;59.928;30.306;2022-11-10T05:32:35;11.57;;;10.23;;
41249;SDS011;26984;59.928;30.306;2022-11-10T05:35:30;9.98;;;8.95;;
41249;SDS011;26984;59.928;30.306;2022-11-10T05:38:18;12.13;;;10.95;;
41249;SDS011;26984;59.928;30.306;2022-11-10T05:41:06;12.98;;;9.55;;
41249;SDS011;26984;59.928;30.306;2022-11-10T05:43:57;11.27;;;10.10;;
41249;SDS011;26984;59.928;30.306;2022-11-10T05:46:45;12.57;;;11.02;;
41249;SDS011;26984;59.928;30.306;2022-11-10T05:49:34;13.18;;;11.45;;
41249;SDS011;26984;59.928;30.306;2022-11-10T05:52:23;13.85;;;12.23;;
41249;SDS011;26984;59.928;30.306;2022-11-10T05:55:18;13.55;;;12.13;;
41249;SDS011;26984;59.928;30.306;2022-11-10T05:58:10;17.55;;;15.85;;
41249;SDS011;26984;59.928;30.306;2022-11-10T06:01:03;14.70;;;12.48;;
41249;SDS011;26984;59.928;30.306;2022-11-10T06:03:51;14.52;;;13.05;;
41249;SDS011;26984;59.928;30.306;2022-11-10T06:06:38;17.88;;;14.60;;
41249;SDS011;26984;59.928;30.306;2022-11-10T06:09:24;17.83;;;15.05;;
41249;SDS011;26984;59.928;30.306;2022-11-10T06:12:11;17.70;;;15.80;;
41249;SDS011;26984;59.928;30.306;2022-11-10T06:14:57;18.42;;;12.98;;
41249;SDS011;26984;59.928;30.306;2022-11-10T06:17:45;18.40;;;14.73;;
41249;SDS011;26984;59.928;30.306;2022-11-10T06:20:32;19.95;;;15.43;;
41249;SDS011;26984;59.928;30.306;2022-11-10T06:23:18;15.80;;;13.65;;
41249;SDS011;26984;59.928;30.306;2022-11-10T06:26:05;15.93;;;13.38;;
41249;SDS011;26984;59.928;30.306;2022-11-10T06:28:51;16.17;;;13.95;;
41249;SDS011;26984;59.928;30.306;2022-11-10T06:31:37;17.08;;;12.90;;
41249;SDS011;26984;59.928;30.306;2022-11-10T06:34:25;16.13;;;13.73;;
41249;SDS011;26984;59.928;30.306;2022-11-10T06:37:11;15.85;;;14.15;;
41249;SDS011;26984;59.928;30.306;2022-11-10T06:39:58;18.33;;;16.48;;
41249;SDS011;26984;59.928;30.306;2022-11-10T06:42:44;16.88;;;14.27;;
41249;SDS011;26984;59.928;30.306;2022-11-10T06:45:31;14.93;;;13.30;;
41249;SDS011;26984;59.928;30.306;2022-11-10T06:48:17;16.38;;;13.13;;
41249;SDS011;26984;59.928;30.306;2022-11-10T06:51:05;18.73;;;15.68;;
41249;SDS011;26984;59.928;30.306;2022-11-10T06:53:52;19.75;;;16.05;;
41249;SDS011;26984;59.928;30.306;2022-11-10T06:56:38;19.83;;;14.20;;
41249;SDS011;26984;59.928;30.306;2022-11-10T06:59:25;16.60;;;12.25;;
41249;SDS011;26984;59.928;30.306;2022-11-10T07:02:12;19.73;;;16.30;;
41249;SDS011;26984;59.928;30.306;2022-11-10T07:04:59;21.10;;;19.27;;
41249;SDS011;26984;59.928;30.306;2022-11-10T07:07:47;20.88;;;14.68;;
41249;SDS011;26984;59.928;30.306;2022-11-10T07:10:33;19.90;;;16.00;;
41249;SDS011;26984;59.928;30.306;2022-11-10T07:13:21;16.88;;;13.88;;
41249;SDS011;26984;59.928;30.306;2022-11-10T07:16:08;19.42;;;16.67;;
41249;SDS011;26984;59.928;30.306;2022-11-10T07:18:54;17.23;;;14.90;;
41249;SDS011;26984;59.928;30.306;2022-11-10T07:21:41;16.67;;;13.05;;
41249;SDS011;26984;59.928;30.306;2022-11-10T07:24:28;19.05;;;16.15;;
41249;SDS011;26984;59.928;30.306;2022-11-10T07:27:15;20.27;;;14.57;;
41249;SDS011;26984;59.928;30.306;2022-11-10T07:30:01;20.13;;;16.20;;
41249;SDS011;26984;59.928;30.306;2022-11-10T07:32:55;18.23;;;14.57;;
41249;SDS011;26984;59.928;30.306;2022-11-10T07:35:43;16.58;;;14.63;;
41249;SDS011;26984;59.928;30.306;2022-11-10T07:38:37;19.83;;;12.52;;
41249;SDS011;26984;59.928;30.306;2022-11-10T07:41:24;19.40;;;14.68;;
41249;SDS011;26984;59.928;30.306;2022-11-10T07:44:11;18.55;;;14.25;;
41249;SDS011;26984;59.928;30.306;2022-11-10T07:46:57;16.45;;;13.15;;
41249;SDS011;26984;59.928;30.306;2022-11-10T07:49:43;15.18;;;12.15;;
41249;SDS011;26984;59.928;30.306;2022-11-10T07:52:29;16.05;;;12.18;;
41249;SDS011;26984;59.928;30.306;2022-11-10T07:55:16;14.75;;;11.63;;
41249;SDS011;26984;59.928;30.306;2022-11-10T07:58:04;13.40;;;10.80;;
41249;SDS011;26984;59.928;30.306;2022-11-10T08:00:51;13.95;;;10.95;;
41249;SDS011;26984;59.928;30.306;2022-11-10T08:03:37;12.43;;;11.13;;
41249;SDS011;26984;59.928;30.306;2022-11-10T08:06:23;14.00;;;12.50;;
41249;SDS011;26984;59.928;30.306;2022-11-10T08:09:10;12.48;;;9.80;;
41249;SDS011;26984;59.928;30.306;2022-11-10T08:11:56;12.20;;;10.90;;
41249;SDS011;26984;59.928;30.306;2022-11-10T08:14:43;12.68;;;11.35;;
41249;SDS011;26984;59.928;30.306;2022-11-10T08:17:30;13.90;;;11.13;;
41249;SDS011;26984;59.928;30.306;2022-11-10T08:20:17;12.15;;;9.63;;
41249;SDS011;26984;59.928;30.306;2022-11-10T08:23:03;15.18;;;9.80;;
41249;SDS011;26984;59.928;30.306;2022-11-10T08:25:51;11.20;;;9.73;;
41249;SDS011;26984;59.928;30.306;2022-11-10T08:28:37;13.40;;;11.93;;
41249;SDS011;26984;59.928;30.306;2022-11-10T08:31:25;15.25;;;12.43;;
41249;SDS011;26984;59.928;30.306;2022-11-10T08:34:11;17.85;;;11.45;;
41249;SDS011;26984;59.928;30.306;2022-11-10T08:36:58;17.45;;;14.85;;
41249;SDS011;26984;59.928;30.306;2022-11-10T08:39:44;16.50;;;12.02;;
41249;SDS011;26984;59.928;30.306;2022-11-10T08:42:31;15.07;;;10.38;;
41249;SDS011;26984;59.928;30.306;2022-11-10T08:45:17;14.45;;;11.65;;
41249;SDS011;26984;59.928;30.306;2022-11-10T08:48:06;18.58;;;13.55;;
41249;SDS011;26984;59.928;30.306;2022-11-10T08:50:53;16.83;;;12.85;;
41249;SDS011;26984;59.928;30.306;2022-11-10T08:53:39;17.48;;;12.70;;
41249;SDS011;26984;59.928;30.306;2022-11-10T08:56:26;17.98;;;11.95;;
41249;SDS011;26984;59.928;30.306;2022-11-10T08:59:12;19.88;;;13.93;;
41249;SDS011;26984;59.928;30.306;2022-11-10T09:01:59;18.77;;;16.08;;
41249;SDS011;26984;59.928;30.306;2022-11-10T09:04:46;14.13;;;10.82;;
41249;SDS011;26984;59.928;30.306;2022-11-10T09:07:34;21.10;;;15.23;;
41249;SDS011;26984;59.928;30.306;2022-11-10T09:10:27;22.42;;;15.88;;
41249;SDS011;26984;59.928;30.306;2022-11-10T09:13:14;20.80;;;14.35;;
41249;SDS011;26984;59.928;30.306;2022-11-10T09:16:01;21.10;;;15.60;;
41249;SDS011;26984;59.928;30.306;2022-11-10T09:18:47;17.00;;;13.88;;
41249;SDS011;26984;59.928;30.306;2022-11-10T09:21:35;17.40;;;14.68;;
41249;SDS011;26984;59.928;30.306;2022-11-10T09:24:22;22.15;;;15.43;;
41249;SDS011;26984;59.928;30.306;2022-11-10T09:27:10;20.95;;;15.73;;
41249;SDS011;26984;59.928;30.306;2022-11-10T09:29:56;18.15;;;14.13;;
41249;SDS011;26984;59.928;30.306;2022-11-10T09:32:43;18.42;;;15.90;;
41249;SDS011;26984;59.928;30.306;2022-11-10T09:35:30;19.90;;;14.48;;
41249;SDS011;26984;59.928;30.306;2022-11-10T09:38:18;20.13;;;15.57;;
41249;SDS011;26984;59.928;30.306;2022-11-10T09:41:05;19.90;;;16.63;;
41249;SDS011;26984;59.928;30.306;2022-11-10T09:43:56;19.65;;;16.45;;
41249;SDS011;26984;59.928;30.306;2022-11-10T09:46:46;19.98;;;15.75;;
41249;SDS011;26984;59.928;30.306;2022-11-10T09:49:37;20.17;;;17.83;;
41249;SDS011;26984;59.928;30.306;2022-11-10T09:52:28;27.30;;;18.88;;
41249;SDS011;26984;59.928;30.306;2022-11-10T09:55:24;19.88;;;16.77;;
41249;SDS011;26984;59.928;30.306;2022-11-10T09:58:16;19.88;;;16.85;;
41249;SDS011;26984;59.928;30.306;2022-11-10T10:01:10;20.23;;;16.52;;
41249;SDS011;26984;59.928;30.306;2022-11-10T10:04:13;21.35;;;17.98;;
41249;SDS011;26984;59.928;30.306;2022-11-10T10:07:09;21.85;;;19.02;;
41249;SDS011;26984;59.928;30.306;2022-11-10T10:10:00;25.73;;;17.88;;
41249;SDS011;26984;59.928;30.306;2022-11-10T10:12:59;22.25;;;17.77;;
41249;SDS011;26984;59.928;30.306;2022-11-10T10:16:02;20.25;;;15.70;;
41249;SDS011;26984;59.928;30.306;2022-11-10T10:18:57;25.83;;;19.20;;
41249;SDS011;26984;59.928;30.306;2022-11-10T10:21:56;22.67;;;19.27;;
41249;SDS011;26984;59.928;30.306;2022-11-10T10:24:56;22.13;;;18.17;;
41249;SDS011;26984;59.928;30.306;2022-11-10T10:27:47;24.88;;;21.50;;
41249;SDS011;26984;59.928;30.306;2022-11-10T10:30:42;26.00;;;23.25;;
41249;SDS011;26984;59.928;30.306;2022-11-10T10:33:30;25.90;;;20.65;;
41249;SDS011;26984;59.928;30.306;2022-11-10T10:36:17;24.90;;;20.15;;
41249;SDS011;26984;59.928;30.306;2022-11-10T10:39:09;26.88;;;21.52;;
41249;SDS011;26984;59.928;30.306;2022-11-10T10:41:59;26.17;;;22.38;;
41249;SDS011;26984;59.928;30.306;2022-11-10T10:48:15;27.42;;;22.55;;
41249;SDS011;26984;59.928;30.306;2022-11-10T10:51:09;31.08;;;22.48;;
41249;SDS011;26984;59.928;30.306;2022-11-10T10:53:56;25.20;;;19.75;;
41249;SDS011;26984;59.928;30.306;2022-11-10T10:56:42;27.85;;;19.90;;
41249;SDS011;26984;59.928;30.306;2022-11-10T10:59:29;30.67;;;21.40;;
41249;SDS011;26984;59.928;30.306;2022-11-10T11:02:26;27.48;;;20.00;;
41249;SDS011;26984;59.928;30.306;2022-11-10T11:05:16;26.75;;;20.17;;
41249;SDS011;26984;59.928;30.306;2022-11-10T11:08:04;22.92;;;19.08;;
41249;SDS011;26984;59.928;30.306;2022-11-10T11:10:50;23.20;;;20.30;;
41249;SDS011;26984;59.928;30.306;2022-11-10T11:13:37;27.35;;;20.20;;
41249;SDS011;26984;59.928;30.306;2022-11-10T11:16:23;28.60;;;23.02;;
41249;SDS011;26984;59.928;30.306;2022-11-10T11:19:10;27.63;;;19.10;;
41249;SDS011;26984;59.928;30.306;2022-11-10T11:25:24;27.30;;;21.52;;
41249;SDS011;26984;59.928;30.306;2022-11-10T11:28:15;26.27;;;21.63;;
41249;SDS011;26984;59.928;30.306;2022-11-10T11:31:12;27.33;;;22.17;;
41249;SDS011;26984;59.928;30.306;2022-11-10T11:34:12;25.98;;;19.17;;
41249;SDS011;26984;59.928;30.306;2022-11-10T11:37:04;21.33;;;17.08;;
41249;SDS011;26984;59.928;30.306;2022-11-10T11:40:03;25.52;;;20.17;;
41249;SDS011;26984;59.928;30.306;2022-11-10T11:43:03;21.67;;;16.75;;
41249;SDS011;26984;59.928;30.306;2022-11-10T11:46:02;26.15;;;20.58;;
41249;SDS011;26984;59.928;30.306;2022-11-10T11:49:06;22.38;;;17.27;;
41249;SDS011;26984;59.928;30.306;2022-11-10T11:52:16;25.92;;;20.27;;
41249;SDS011;26984;59.928;30.306;2022-11-10T11:55:17;27.80;;;21.38;;
41249;SDS011;26984;59.928;30.306;2022-11-10T11:58:19;23.90;;;19.05;;
41249;SDS011;26984;59.928;30.306;2022-11-10T12:01:20;28.25;;;21.65;;
41249;SDS011;26984;59.928;30.306;2022-11-10T12:04:36;27.50;;;21.25;;
41249;SDS011;26984;59.928;30.306;2022-11-10T12:07:32;29.25;;;20.42;;
41249;SDS011;26984;59.928;30.306;2022-11-10T12:13:24;25.08;;;19.13;;
41249;SDS011;26984;59.928;30.306;2022-11-10T12:16:22;26.30;;;20.92;;
41249;SDS011;26984;59.928;30.306;2022-11-10T12:19:16;36.65;;;33.17;;
41249;SDS011;26984;59.928;30.306;2022-11-10T12:22:12;25.45;;;18.77;;
41249;SDS011;26984;59.928;30.306;2022-11-10T12:25:13;23.08;;;18.75;;
41249;SDS011;26984;59.928;30.306;2022-11-10T12:28:11;21.27;;;15.75;;
41249;SDS011;26984;59.928;30.306;2022-11-10T12:31:02;26.75;;;19.83;;
41249;SDS011;26984;59.928;30.306;2022-11-10T12:33:55;24.50;;;19.15;;
41249;SDS011;26984;59.928;30.306;2022-11-10T12:36:45;26.70;;;20.88;;
41249;SDS011;26984;59.928;30.306;2022-11-10T12:39:36;20.13;;;16.87;;
41249;SDS011;26984;59.928;30.306;2022-11-10T12:42:27;25.25;;;18.40;;
41249;SDS011;26984;59.928;30.306;2022-11-10T12:45:19;21.42;;;17.55;;
41249;SDS011;26984;59.928;30.306;2022-11-10T12:48:10;22.25;;;17.20;;
41249;SDS011;26984;59.928;30.306;2022-11-10T12:51:00;22.25;;;19.23;;
41249;SDS011;26984;59.928;30.306;2022-11-10T12:53:54;27.65;;;24.73;;
41249;SDS011;26984;59.928;30.306;2022-11-10T12:56:42;25.58;;;18.23;;
41249;SDS011;26984;59.928;30.306;2022-11-10T12:59:32;24.05;;;18.27;;
41249;SDS011;26984;59.928;30.306;2022-11-10T13:02:26;29.20;;;22.23;;
41249;SDS011;26984;59.928;30.306;2022-11-10T13:05:23;23.38;;;17.42;;
41249;SDS011;26984;59.928;30.306;2022-11-10T13:08:14;24.77;;;18.75;;
41249;SDS011;26984;59.928;30.306;2022-11-10T13:11:18;23.73;;;18.75;;
41249;SDS011;26984;59.928;30.306;2022-11-10T13:14:18;24.80;;;17.90;;
41249;SDS011;26984;59.928;30.306;2022-11-10T13:17:07;23.05;;;19.63;;
41249;SDS011;26984;59.928;30.306;2022-11-10T13:19:56;21.25;;;18.77;;
41249;SDS011;26984;59.928;30.306;2022-11-10T13:22:44;22.65;;;17.08;;
41249;SDS011;26984;59.928;30.306;2022-11-10T13:25:40;26.77;;;16.75;;
41249;SDS011;26984;59.928;30.306;2022-11-10T13:31:53;23.63;;;21.23;;
41249;SDS011;26984;59.928;30.306;2022-11-10T13:34:40;21.67;;;17.88;;
41249;SDS011;26984;59.928;30.306;2022-11-10T13:40:34;21.40;;;17.48;;
41249;SDS011;26984;59.928;30.306;2022-11-10T13:43:23;21.73;;;17.83;;
41249;SDS011;26984;59.928;30.306;2022-11-10T13:46:11;23.40;;;18.17;;
41249;SDS011;26984;59.928;30.306;2022-11-10T13:49:16;21.40;;;18.38;;
41249;SDS011;26984;59.928;30.306;2022-11-10T13:52:13;21.92;;;17.85;;
41249;SDS011;26984;59.928;30.306;2022-11-10T13:57:58;26.27;;;19.67;;
41249;SDS011;26984;59.928;30.306;2022-11-10T14:03:54;25.05;;;18.00;;
41249;SDS011;26984;59.928;30.306;2022-11-10T14:06:45;24.17;;;17.40;;
41249;SDS011;26984;59.928;30.306;2022-11-10T14:09:36;25.02;;;18.23;;
41249;SDS011;26984;59.928;30.306;2022-11-10T14:12:28;27.33;;;18.45;;
41249;SDS011;26984;59.928;30.306;2022-11-10T14:15:19;28.33;;;18.75;;
41249;SDS011;26984;59.928;30.306;2022-11-10T14:18:13;32.05;;;21.95;;
41249;SDS011;26984;59.928;30.306;2022-11-10T14:21:03;23.92;;;17.75;;
41249;SDS011;26984;59.928;30.306;2022-11-10T14:23:55;27.17;;;19.13;;
41249;SDS011;26984;59.928;30.306;2022-11-10T14:26:47;24.65;;;17.48;;
41249;SDS011;26984;59.928;30.306;2022-11-10T14:29:41;27.17;;;19.20;;
41249;SDS011;26984;59.928;30.306;2022-11-10T14:32:28;21.33;;;18.02;;
41249;SDS011;26984;59.928;30.306;2022-11-10T14:35:16;22.48;;;17.17;;
41249;SDS011;26984;59.928;30.306;2022-11-10T14:40:52;22.60;;;16.60;;
41249;SDS011;26984;59.928;30.306;2022-11-10T14:43:41;21.33;;;18.80;;
41249;SDS011;26984;59.928;30.306;2022-11-10T14:46:29;24.67;;;17.00;;
41249;SDS011;26984;59.928;30.306;2022-11-10T14:49:20;22.77;;;17.20;;
41249;SDS011;26984;59.928;30.306;2022-11-10T14:52:08;23.98;;;16.95;;
41249;SDS011;26984;59.928;30.306;2022-11-10T14:55:00;22.95;;;18.13;;
41249;SDS011;26984;59.928;30.306;2022-11-10T14:57:53;21.50;;;17.02;;
41249;SDS011;26984;59.928;30.306;2022-11-10T15:00:44;26.08;;;16.85;;
41249;SDS011;26984;59.928;30.306;2022-11-10T15:03:36;27.13;;;16.38;;
41249;SDS011;26984;59.928;30.306;2022-11-10T15:06:25;26.90;;;19.77;;
41249;SDS011;26984;59.928;30.306;2022-11-10T15:09:14;28.92;;;18.15;;
41249;SDS011;26984;59.928;30.306;2022-11-10T15:12:17;25.10;;;16.00;;
41249;SDS011;26984;59.928;30.306;2022-11-10T15:15:19;26.02;;;18.85;;
41249;SDS011;26984;59.928;30.306;2022-11-10T15:18:21;21.73;;;15.52;;
41249;SDS011;26984;59.928;30.306;2022-11-10T15:21:10;21.27;;;16.83;;
41249;SDS011;26984;59.928;30.306;2022-11-10T15:23:59;24.92;;;19.45;;
41249;SDS011;26984;59.928;30.306;2022-11-10T15:26:48;21.83;;;16.98;;
41249;SDS011;26984;59.928;30.306;2022-11-10T15:29:34;22.70;;;16.58;;
41249;SDS011;26984;59.928;30.306;2022-11-10T15:32:22;23.45;;;19.00;;
41249;SDS011;26984;59.928;30.306;2022-11-10T15:35:24;23.13;;;16.85;;
41249;SDS011;26984;59.928;30.306;2022-11-10T15:38:27;20.05;;;17.67;;
41249;SDS011;26984;59.928;30.306;2022-11-10T15:41:21;19.42;;;17.42;;
41249;SDS011;26984;59.928;30.306;2022-11-10T15:44:15;20.48;;;15.85;;
41249;SDS011;26984;59.928;30.306;2022-11-10T15:47:03;20.48;;;16.10;;
41249;SDS011;26984;59.928;30.306;2022-11-10T15:49:50;26.00;;;20.85;;
41249;SDS011;26984;59.928;30.306;2022-11-10T15:52:36;20.83;;;15.98;;
41249;SDS011;26984;59.928;30.306;2022-11-10T15:55:25;23.13;;;15.45;;
41249;SDS011;26984;59.928;30.306;2022-11-10T16:01:00;23.35;;;15.55;;
41249;SDS011;26984;59.928;30.306;2022-11-10T16:03:47;17.80;;;14.77;;
41249;SDS011;26984;59.928;30.306;2022-11-10T16:06:34;19.23;;;15.75;;
41249;SDS011;26984;59.928;30.306;2022-11-10T16:09:20;18.63;;;15.02;;
41249;SDS011;26984;59.928;30.306;2022-11-10T16:12:09;21.10;;;15.98;;
41249;SDS011;26984;59.928;30.306;2022-11-10T16:14:59;22.33;;;15.00;;
41249;SDS011;26984;59.928;30.306;2022-11-10T16:17:52;20.27;;;16.85;;
41249;SDS011;26984;59.928;30.306;2022-11-10T16:20:38;18.60;;;16.58;;
41249;SDS011;26984;59.928;30.306;2022-11-10T16:23:25;19.42;;;15.10;;
41249;SDS011;26984;59.928;30.306;2022-11-10T16:26:13;21.33;;;19.13;;
41249;SDS011;26984;59.928;30.306;2022-11-10T16:29:04;21.17;;;16.38;;
41249;SDS011;26984;59.928;30.306;2022-11-10T16:31:55;16.42;;;13.40;;
41249;SDS011;26984;59.928;30.306;2022-11-10T16:34:41;21.15;;;14.48;;
41249;SDS011;26984;59.928;30.306;2022-11-10T16:37:28;23.08;;;18.60;;
41249;SDS011;26984;59.928;30.306;2022-11-10T16:40:15;13.57;;;10.23;;
41249;SDS011;26984;59.928;30.306;2022-11-10T16:43:02;21.02;;;17.73;;
41249;SDS011;26984;59.928;30.306;2022-11-10T16:45:51;19.17;;;13.52;;
41249;SDS011;26984;59.928;30.306;2022-11-10T16:48:39;22.13;;;15.38;;
41249;SDS011;26984;59.928;30.306;2022-11-10T16:51:30;18.35;;;14.95;;